sensor_id;sensor_type;location;lat;lon;timestamp;P1;durP1;ratioP1;P2;durP2;ratioP2
70183;SDS011;57554;51.546;6.776;2023-08-06T00:02:20;9.02;;;3.30;;
70183;SDS011;57554;51.546;6.776;2023-08-06T00:04:46;7.63;;;3.53;;
70183;SDS011;57554;51.546;6.776;2023-08-06T00:07:11;6.07;;;3.25;;
70183;SDS011;57554;51.546;6.776;2023-08-06T00:09:37;6.80;;;3.53;;
70183;SDS011;57554;51.546;6.776;2023-08-06T00:12:03;5.95;;;3.15;;
70183;SDS011;57554;51.546;6.776;2023-08-06T00:14:28;6.70;;;3.38;;
70183;SDS011;57554;51.546;6.776;2023-08-06T00:16:54;8.18;;;3.08;;
70183;SDS011;57554;51.546;6.776;2023-08-06T00:19:19;5.28;;;2.80;;
70183;SDS011;57554;51.546;6.776;2023-08-06T00:21:45;7.93;;;2.95;;
70183;SDS011;57554;51.546;6.776;2023-08-06T00:24:10;7.85;;;2.95;;
70183;SDS011;57554;51.546;6.776;2023-08-06T00:26:36;7.28;;;3.13;;
70183;SDS011;57554;51.546;6.776;2023-08-06T00:29:01;8.30;;;3.25;;
70183;SDS011;57554;51.546;6.776;2023-08-06T00:31:27;6.25;;;2.95;;
70183;SDS011;57554;51.546;6.776;2023-08-06T00:33:53;6.00;;;3.08;;
70183;SDS011;57554;51.546;6.776;2023-08-06T00:36:18;7.47;;;3.38;;
70183;SDS011;57554;51.546;6.776;2023-08-06T00:38:44;9.20;;;3.20;;
70183;SDS011;57554;51.546;6.776;2023-08-06T00:41:09;7.03;;;3.25;;
70183;SDS011;57554;51.546;6.776;2023-08-06T00:43:35;6.13;;;3.03;;
70183;SDS011;57554;51.546;6.776;2023-08-06T00:46:01;8.70;;;3.20;;
70183;SDS011;57554;51.546;6.776;2023-08-06T00:48:27;6.38;;;2.65;;
70183;SDS011;57554;51.546;6.776;2023-08-06T00:50:52;6.90;;;2.90;;
70183;SDS011;57554;51.546;6.776;2023-08-06T00:53:18;6.55;;;3.38;;
70183;SDS011;57554;51.546;6.776;2023-08-06T00:55:44;11.23;;;3.30;;
70183;SDS011;57554;51.546;6.776;2023-08-06T00:58:10;7.72;;;3.35;;
70183;SDS011;57554;51.546;6.776;2023-08-06T01:00:36;8.13;;;3.63;;
70183;SDS011;57554;51.546;6.776;2023-08-06T01:03:02;8.27;;;3.25;;
70183;SDS011;57554;51.546;6.776;2023-08-06T01:05:28;7.53;;;3.65;;
70183;SDS011;57554;51.546;6.776;2023-08-06T01:08:16;6.95;;;3.42;;
70183;SDS011;57554;51.546;6.776;2023-08-06T01:11:00;9.02;;;3.60;;
70183;SDS011;57554;51.546;6.776;2023-08-06T01:13:39;8.00;;;3.92;;
70183;SDS011;57554;51.546;6.776;2023-08-06T01:16:17;7.53;;;3.28;;
70183;SDS011;57554;51.546;6.776;2023-08-06T01:18:46;7.57;;;3.25;;
70183;SDS011;57554;51.546;6.776;2023-08-06T01:21:14;6.72;;;3.25;;
70183;SDS011;57554;51.546;6.776;2023-08-06T01:23:40;6.68;;;3.60;;
70183;SDS011;57554;51.546;6.776;2023-08-06T01:29:03;12.48;;;4.45;;
70183;SDS011;57554;51.546;6.776;2023-08-06T01:34:00;8.25;;;3.80;;
70183;SDS011;57554;51.546;6.776;2023-08-06T01:36:27;10.20;;;4.45;;
70183;SDS011;57554;51.546;6.776;2023-08-06T01:38:53;10.27;;;4.15;;
70183;SDS011;57554;51.546;6.776;2023-08-06T01:41:19;9.90;;;4.65;;
70183;SDS011;57554;51.546;6.776;2023-08-06T01:43:45;7.70;;;4.13;;
70183;SDS011;57554;51.546;6.776;2023-08-06T01:46:10;9.45;;;4.45;;
70183;SDS011;57554;51.546;6.776;2023-08-06T01:48:36;7.72;;;4.18;;
70183;SDS011;57554;51.546;6.776;2023-08-06T01:51:04;8.60;;;4.10;;
70183;SDS011;57554;51.546;6.776;2023-08-06T01:53:30;7.38;;;4.00;;
70183;SDS011;57554;51.546;6.776;2023-08-06T01:55:56;7.32;;;4.25;;
70183;SDS011;57554;51.546;6.776;2023-08-06T01:58:22;8.35;;;3.78;;
70183;SDS011;57554;51.546;6.776;2023-08-06T02:00:48;10.10;;;3.70;;
70183;SDS011;57554;51.546;6.776;2023-08-06T02:03:13;9.02;;;4.28;;
70183;SDS011;57554;51.546;6.776;2023-08-06T02:05:39;8.10;;;4.30;;
70183;SDS011;57554;51.546;6.776;2023-08-06T02:08:05;7.40;;;4.22;;
70183;SDS011;57554;51.546;6.776;2023-08-06T02:10:31;8.93;;;4.30;;
70183;SDS011;57554;51.546;6.776;2023-08-06T02:12:56;10.18;;;4.30;;
70183;SDS011;57554;51.546;6.776;2023-08-06T02:15:22;9.18;;;4.53;;
70183;SDS011;57554;51.546;6.776;2023-08-06T02:17:48;8.05;;;3.67;;
70183;SDS011;57554;51.546;6.776;2023-08-06T02:20:13;8.45;;;4.55;;
70183;SDS011;57554;51.546;6.776;2023-08-06T02:22:39;9.63;;;4.40;;
70183;SDS011;57554;51.546;6.776;2023-08-06T02:25:05;9.98;;;4.15;;
70183;SDS011;57554;51.546;6.776;2023-08-06T02:27:30;7.82;;;4.10;;
70183;SDS011;57554;51.546;6.776;2023-08-06T02:29:56;11.50;;;4.32;;
70183;SDS011;57554;51.546;6.776;2023-08-06T02:32:21;10.35;;;4.40;;
70183;SDS011;57554;51.546;6.776;2023-08-06T02:34:47;10.23;;;4.32;;
70183;SDS011;57554;51.546;6.776;2023-08-06T02:37:12;9.98;;;4.10;;
70183;SDS011;57554;51.546;6.776;2023-08-06T02:39:38;9.95;;;4.15;;
70183;SDS011;57554;51.546;6.776;2023-08-06T02:42:06;7.13;;;3.75;;
70183;SDS011;57554;51.546;6.776;2023-08-06T02:44:32;8.90;;;3.72;;
70183;SDS011;57554;51.546;6.776;2023-08-06T02:46:58;8.20;;;3.75;;
70183;SDS011;57554;51.546;6.776;2023-08-06T02:49:24;7.38;;;3.60;;
70183;SDS011;57554;51.546;6.776;2023-08-06T02:51:50;7.75;;;3.63;;
70183;SDS011;57554;51.546;6.776;2023-08-06T02:54:15;6.45;;;3.65;;
70183;SDS011;57554;51.546;6.776;2023-08-06T02:56:44;7.60;;;3.38;;
70183;SDS011;57554;51.546;6.776;2023-08-06T02:59:11;8.52;;;3.50;;
70183;SDS011;57554;51.546;6.776;2023-08-06T03:01:37;9.35;;;3.85;;
70183;SDS011;57554;51.546;6.776;2023-08-06T03:04:03;8.70;;;3.78;;
70183;SDS011;57554;51.546;6.776;2023-08-06T03:06:29;8.77;;;3.70;;
70183;SDS011;57554;51.546;6.776;2023-08-06T03:08:54;7.97;;;3.42;;
70183;SDS011;57554;51.546;6.776;2023-08-06T03:11:20;5.95;;;3.15;;
70183;SDS011;57554;51.546;6.776;2023-08-06T03:13:46;6.90;;;3.20;;
70183;SDS011;57554;51.546;6.776;2023-08-06T03:16:12;7.53;;;3.35;;
70183;SDS011;57554;51.546;6.776;2023-08-06T03:18:38;6.57;;;3.28;;
70183;SDS011;57554;51.546;6.776;2023-08-06T03:21:04;9.52;;;3.03;;
70183;SDS011;57554;51.546;6.776;2023-08-06T03:23:29;8.90;;;3.90;;
70183;SDS011;57554;51.546;6.776;2023-08-06T03:25:55;7.43;;;3.00;;
70183;SDS011;57554;51.546;6.776;2023-08-06T03:28:20;6.97;;;3.30;;
70183;SDS011;57554;51.546;6.776;2023-08-06T03:30:47;6.97;;;3.05;;
70183;SDS011;57554;51.546;6.776;2023-08-06T03:33:13;10.00;;;3.35;;
70183;SDS011;57554;51.546;6.776;2023-08-06T03:35:38;6.85;;;3.20;;
70183;SDS011;57554;51.546;6.776;2023-08-06T03:38:04;8.65;;;3.58;;
70183;SDS011;57554;51.546;6.776;2023-08-06T03:40:30;10.43;;;3.53;;
70183;SDS011;57554;51.546;6.776;2023-08-06T03:42:55;7.55;;;3.30;;
70183;SDS011;57554;51.546;6.776;2023-08-06T03:45:21;8.43;;;3.47;;
70183;SDS011;57554;51.546;6.776;2023-08-06T03:47:46;6.95;;;3.38;;
70183;SDS011;57554;51.546;6.776;2023-08-06T03:50:12;7.20;;;3.30;;
70183;SDS011;57554;51.546;6.776;2023-08-06T03:52:38;7.25;;;2.90;;
70183;SDS011;57554;51.546;6.776;2023-08-06T03:55:03;7.25;;;3.00;;
70183;SDS011;57554;51.546;6.776;2023-08-06T03:57:29;6.63;;;3.30;;
70183;SDS011;57554;51.546;6.776;2023-08-06T03:59:55;8.20;;;3.55;;
70183;SDS011;57554;51.546;6.776;2023-08-06T04:02:20;8.77;;;3.60;;
70183;SDS011;57554;51.546;6.776;2023-08-06T04:04:46;7.78;;;3.15;;
70183;SDS011;57554;51.546;6.776;2023-08-06T04:07:11;7.50;;;3.10;;
70183;SDS011;57554;51.546;6.776;2023-08-06T04:09:58;11.75;;;3.80;;
70183;SDS011;57554;51.546;6.776;2023-08-06T04:12:23;10.43;;;3.80;;
70183;SDS011;57554;51.546;6.776;2023-08-06T04:14:49;6.85;;;3.38;;
70183;SDS011;57554;51.546;6.776;2023-08-06T04:17:17;7.25;;;3.42;;
70183;SDS011;57554;51.546;6.776;2023-08-06T04:19:45;9.18;;;3.20;;
70183;SDS011;57554;51.546;6.776;2023-08-06T04:22:20;7.97;;;3.50;;
70183;SDS011;57554;51.546;6.776;2023-08-06T04:24:46;10.30;;;3.50;;
70183;SDS011;57554;51.546;6.776;2023-08-06T04:27:12;8.55;;;3.38;;
70183;SDS011;57554;51.546;6.776;2023-08-06T04:29:39;9.73;;;3.90;;
70183;SDS011;57554;51.546;6.776;2023-08-06T04:32:05;9.43;;;3.58;;
70183;SDS011;57554;51.546;6.776;2023-08-06T04:34:33;7.65;;;3.05;;
70183;SDS011;57554;51.546;6.776;2023-08-06T04:36:59;6.45;;;3.28;;
70183;SDS011;57554;51.546;6.776;2023-08-06T04:39:25;11.32;;;3.65;;
70183;SDS011;57554;51.546;6.776;2023-08-06T04:41:51;6.15;;;3.00;;
70183;SDS011;57554;51.546;6.776;2023-08-06T04:44:16;8.35;;;3.50;;
70183;SDS011;57554;51.546;6.776;2023-08-06T04:46:42;8.35;;;3.28;;
70183;SDS011;57554;51.546;6.776;2023-08-06T04:49:08;8.43;;;3.03;;
70183;SDS011;57554;51.546;6.776;2023-08-06T04:51:33;6.00;;;3.38;;
70183;SDS011;57554;51.546;6.776;2023-08-06T04:53:59;8.13;;;3.28;;
70183;SDS011;57554;51.546;6.776;2023-08-06T04:56:24;7.88;;;2.90;;
70183;SDS011;57554;51.546;6.776;2023-08-06T04:58:50;7.85;;;2.88;;
70183;SDS011;57554;51.546;6.776;2023-08-06T05:01:16;7.53;;;3.00;;
70183;SDS011;57554;51.546;6.776;2023-08-06T05:03:41;8.63;;;3.63;;
70183;SDS011;57554;51.546;6.776;2023-08-06T05:06:07;7.35;;;3.20;;
70183;SDS011;57554;51.546;6.776;2023-08-06T05:08:33;6.32;;;3.08;;
70183;SDS011;57554;51.546;6.776;2023-08-06T05:10:58;6.97;;;3.42;;
70183;SDS011;57554;51.546;6.776;2023-08-06T05:13:24;6.82;;;3.10;;
70183;SDS011;57554;51.546;6.776;2023-08-06T05:15:50;5.97;;;2.80;;
70183;SDS011;57554;51.546;6.776;2023-08-06T05:18:16;6.95;;;2.85;;
70183;SDS011;57554;51.546;6.776;2023-08-06T05:20:42;7.38;;;3.20;;
70183;SDS011;57554;51.546;6.776;2023-08-06T05:23:08;6.95;;;2.90;;
70183;SDS011;57554;51.546;6.776;2023-08-06T05:25:40;6.32;;;3.00;;
70183;SDS011;57554;51.546;6.776;2023-08-06T05:28:05;14.35;;;4.55;;
70183;SDS011;57554;51.546;6.776;2023-08-06T05:30:31;10.48;;;3.30;;
70183;SDS011;57554;51.546;6.776;2023-08-06T05:32:56;9.38;;;3.13;;
70183;SDS011;57554;51.546;6.776;2023-08-06T05:35:22;6.90;;;3.42;;
70183;SDS011;57554;51.546;6.776;2023-08-06T05:37:48;7.50;;;2.92;;
70183;SDS011;57554;51.546;6.776;2023-08-06T05:40:15;7.93;;;2.90;;
70183;SDS011;57554;51.546;6.776;2023-08-06T05:42:41;8.30;;;3.35;;
70183;SDS011;57554;51.546;6.776;2023-08-06T05:45:07;7.53;;;3.42;;
70183;SDS011;57554;51.546;6.776;2023-08-06T05:47:33;8.38;;;3.60;;
70183;SDS011;57554;51.546;6.776;2023-08-06T05:49:59;8.23;;;3.05;;
70183;SDS011;57554;51.546;6.776;2023-08-06T05:52:24;6.45;;;2.83;;
70183;SDS011;57554;51.546;6.776;2023-08-06T05:54:50;7.40;;;2.90;;
70183;SDS011;57554;51.546;6.776;2023-08-06T05:57:16;5.43;;;2.80;;
70183;SDS011;57554;51.546;6.776;2023-08-06T05:59:42;5.95;;;3.15;;
70183;SDS011;57554;51.546;6.776;2023-08-06T06:02:08;6.28;;;2.92;;
70183;SDS011;57554;51.546;6.776;2023-08-06T06:04:33;6.70;;;3.28;;
70183;SDS011;57554;51.546;6.776;2023-08-06T06:06:59;6.32;;;3.42;;
70183;SDS011;57554;51.546;6.776;2023-08-06T06:09:24;6.78;;;3.45;;
70183;SDS011;57554;51.546;6.776;2023-08-06T06:11:50;7.43;;;3.45;;
70183;SDS011;57554;51.546;6.776;2023-08-06T06:14:16;5.60;;;3.15;;
70183;SDS011;57554;51.546;6.776;2023-08-06T06:16:42;7.13;;;3.35;;
70183;SDS011;57554;51.546;6.776;2023-08-06T06:19:08;7.55;;;2.78;;
70183;SDS011;57554;51.546;6.776;2023-08-06T06:21:33;6.78;;;3.10;;
70183;SDS011;57554;51.546;6.776;2023-08-06T06:23:59;6.80;;;2.60;;
70183;SDS011;57554;51.546;6.776;2023-08-06T06:26:25;8.00;;;2.80;;
70183;SDS011;57554;51.546;6.776;2023-08-06T06:28:50;8.05;;;2.70;;
70183;SDS011;57554;51.546;6.776;2023-08-06T06:31:16;5.97;;;2.70;;
70183;SDS011;57554;51.546;6.776;2023-08-06T06:33:41;9.20;;;2.60;;
70183;SDS011;57554;51.546;6.776;2023-08-06T06:36:07;5.70;;;2.70;;
70183;SDS011;57554;51.546;6.776;2023-08-06T06:38:33;12.30;;;3.08;;
70183;SDS011;57554;51.546;6.776;2023-08-06T06:40:59;7.93;;;2.70;;
70183;SDS011;57554;51.546;6.776;2023-08-06T06:43:25;5.63;;;2.40;;
70183;SDS011;57554;51.546;6.776;2023-08-06T06:45:57;4.85;;;2.30;;
70183;SDS011;57554;51.546;6.776;2023-08-06T06:48:25;5.55;;;2.85;;
70183;SDS011;57554;51.546;6.776;2023-08-06T06:50:52;7.22;;;2.50;;
70183;SDS011;57554;51.546;6.776;2023-08-06T06:53:17;7.88;;;2.80;;
70183;SDS011;57554;51.546;6.776;2023-08-06T06:55:43;9.90;;;2.83;;
70183;SDS011;57554;51.546;6.776;2023-08-06T06:58:08;7.60;;;2.58;;
70183;SDS011;57554;51.546;6.776;2023-08-06T07:00:37;9.15;;;3.17;;
70183;SDS011;57554;51.546;6.776;2023-08-06T07:03:02;6.97;;;2.70;;
70183;SDS011;57554;51.546;6.776;2023-08-06T07:05:28;6.85;;;2.70;;
70183;SDS011;57554;51.546;6.776;2023-08-06T07:07:54;7.45;;;2.47;;
70183;SDS011;57554;51.546;6.776;2023-08-06T07:10:20;5.63;;;2.30;;
70183;SDS011;57554;51.546;6.776;2023-08-06T07:12:45;6.15;;;2.67;;
70183;SDS011;57554;51.546;6.776;2023-08-06T07:15:11;5.75;;;2.53;;
70183;SDS011;57554;51.546;6.776;2023-08-06T07:17:36;8.02;;;2.40;;
70183;SDS011;57554;51.546;6.776;2023-08-06T07:20:02;6.32;;;2.80;;
70183;SDS011;57554;51.546;6.776;2023-08-06T07:22:29;7.65;;;2.72;;
70183;SDS011;57554;51.546;6.776;2023-08-06T07:24:54;6.40;;;2.60;;
70183;SDS011;57554;51.546;6.776;2023-08-06T07:27:20;6.30;;;2.58;;
70183;SDS011;57554;51.546;6.776;2023-08-06T07:29:45;9.50;;;2.95;;
70183;SDS011;57554;51.546;6.776;2023-08-06T07:32:13;7.65;;;3.13;;
70183;SDS011;57554;51.546;6.776;2023-08-06T07:34:38;6.15;;;2.80;;
70183;SDS011;57554;51.546;6.776;2023-08-06T07:37:04;8.50;;;2.75;;
70183;SDS011;57554;51.546;6.776;2023-08-06T07:39:30;7.50;;;2.70;;
70183;SDS011;57554;51.546;6.776;2023-08-06T07:41:56;6.38;;;2.88;;
70183;SDS011;57554;51.546;6.776;2023-08-06T07:44:22;7.07;;;2.80;;
70183;SDS011;57554;51.546;6.776;2023-08-06T07:46:48;7.43;;;3.22;;
70183;SDS011;57554;51.546;6.776;2023-08-06T07:49:14;7.30;;;2.83;;
70183;SDS011;57554;51.546;6.776;2023-08-06T07:51:39;7.55;;;3.90;;
70183;SDS011;57554;51.546;6.776;2023-08-06T07:54:05;13.43;;;4.20;;
70183;SDS011;57554;51.546;6.776;2023-08-06T07:56:31;11.02;;;4.40;;
70183;SDS011;57554;51.546;6.776;2023-08-06T07:58:57;9.65;;;4.20;;
70183;SDS011;57554;51.546;6.776;2023-08-06T08:01:22;9.20;;;3.88;;
70183;SDS011;57554;51.546;6.776;2023-08-06T08:03:48;9.13;;;3.95;;
70183;SDS011;57554;51.546;6.776;2023-08-06T08:06:13;10.02;;;3.90;;
70183;SDS011;57554;51.546;6.776;2023-08-06T08:08:39;8.30;;;3.92;;
70183;SDS011;57554;51.546;6.776;2023-08-06T08:11:05;11.35;;;3.75;;
70183;SDS011;57554;51.546;6.776;2023-08-06T08:13:31;8.52;;;3.53;;
70183;SDS011;57554;51.546;6.776;2023-08-06T08:15:57;7.82;;;3.70;;
70183;SDS011;57554;51.546;6.776;2023-08-06T08:18:24;7.03;;;3.38;;
70183;SDS011;57554;51.546;6.776;2023-08-06T08:20:49;10.18;;;3.78;;
70183;SDS011;57554;51.546;6.776;2023-08-06T08:23:15;8.35;;;4.20;;
70183;SDS011;57554;51.546;6.776;2023-08-06T08:25:41;11.25;;;4.60;;
70183;SDS011;57554;51.546;6.776;2023-08-06T08:28:06;8.98;;;4.05;;
70183;SDS011;57554;51.546;6.776;2023-08-06T08:30:32;11.05;;;4.53;;
70183;SDS011;57554;51.546;6.776;2023-08-06T08:32:58;12.30;;;5.15;;
70183;SDS011;57554;51.546;6.776;2023-08-06T08:35:23;10.07;;;4.63;;
70183;SDS011;57554;51.546;6.776;2023-08-06T08:37:49;9.27;;;5.30;;
70183;SDS011;57554;51.546;6.776;2023-08-06T08:40:15;9.63;;;4.85;;
70183;SDS011;57554;51.546;6.776;2023-08-06T08:42:41;10.82;;;5.07;;
70183;SDS011;57554;51.546;6.776;2023-08-06T08:45:11;11.02;;;7.03;;
70183;SDS011;57554;51.546;6.776;2023-08-06T08:47:39;9.55;;;5.70;;
70183;SDS011;57554;51.546;6.776;2023-08-06T08:50:08;11.10;;;5.50;;
70183;SDS011;57554;51.546;6.776;2023-08-06T08:52:36;8.05;;;4.95;;
70183;SDS011;57554;51.546;6.776;2023-08-06T08:55:03;8.77;;;4.68;;
70183;SDS011;57554;51.546;6.776;2023-08-06T08:57:31;6.03;;;3.67;;
70183;SDS011;57554;51.546;6.776;2023-08-06T08:59:57;8.35;;;4.00;;
70183;SDS011;57554;51.546;6.776;2023-08-06T09:02:22;7.45;;;4.30;;
70183;SDS011;57554;51.546;6.776;2023-08-06T09:04:53;9.38;;;4.60;;
70183;SDS011;57554;51.546;6.776;2023-08-06T09:07:20;8.38;;;4.40;;
70183;SDS011;57554;51.546;6.776;2023-08-06T09:09:48;7.22;;;4.30;;
70183;SDS011;57554;51.546;6.776;2023-08-06T09:12:15;10.50;;;4.55;;
70183;SDS011;57554;51.546;6.776;2023-08-06T09:14:41;9.35;;;4.72;;
70183;SDS011;57554;51.546;6.776;2023-08-06T09:17:07;8.48;;;4.43;;
70183;SDS011;57554;51.546;6.776;2023-08-06T09:19:35;8.50;;;4.40;;
70183;SDS011;57554;51.546;6.776;2023-08-06T09:22:01;11.43;;;5.07;;
70183;SDS011;57554;51.546;6.776;2023-08-06T09:24:27;7.45;;;4.60;;
70183;SDS011;57554;51.546;6.776;2023-08-06T09:26:53;9.30;;;5.10;;
70183;SDS011;57554;51.546;6.776;2023-08-06T09:29:19;10.75;;;5.10;;
70183;SDS011;57554;51.546;6.776;2023-08-06T09:31:49;10.50;;;4.95;;
70183;SDS011;57554;51.546;6.776;2023-08-06T09:34:19;8.40;;;5.00;;
70183;SDS011;57554;51.546;6.776;2023-08-06T09:36:50;10.43;;;5.07;;
70183;SDS011;57554;51.546;6.776;2023-08-06T09:39:18;8.43;;;4.40;;
70183;SDS011;57554;51.546;6.776;2023-08-06T09:41:45;9.60;;;4.82;;
70183;SDS011;57554;51.546;6.776;2023-08-06T09:44:16;6.18;;;4.25;;
70183;SDS011;57554;51.546;6.776;2023-08-06T09:46:53;6.63;;;4.47;;
70183;SDS011;57554;51.546;6.776;2023-08-06T09:49:40;11.45;;;4.20;;
70183;SDS011;57554;51.546;6.776;2023-08-06T09:52:11;10.05;;;5.68;;
70183;SDS011;57554;51.546;6.776;2023-08-06T09:54:38;9.02;;;6.38;;
70183;SDS011;57554;51.546;6.776;2023-08-06T09:57:05;8.73;;;5.53;;
70183;SDS011;57554;51.546;6.776;2023-08-06T09:59:32;9.75;;;6.55;;
70183;SDS011;57554;51.546;6.776;2023-08-06T10:01:57;11.05;;;7.82;;
70183;SDS011;57554;51.546;6.776;2023-08-06T10:04:23;11.07;;;8.45;;
70183;SDS011;57554;51.546;6.776;2023-08-06T10:06:49;11.73;;;9.77;;
70183;SDS011;57554;51.546;6.776;2023-08-06T10:09:15;12.13;;;8.25;;
70183;SDS011;57554;51.546;6.776;2023-08-06T10:11:44;12.25;;;9.00;;
70183;SDS011;57554;51.546;6.776;2023-08-06T10:14:19;12.88;;;9.27;;
70183;SDS011;57554;51.546;6.776;2023-08-06T10:16:49;14.38;;;9.13;;
70183;SDS011;57554;51.546;6.776;2023-08-06T10:19:15;12.43;;;9.32;;
70183;SDS011;57554;51.546;6.776;2023-08-06T10:21:59;12.60;;;10.05;;
70183;SDS011;57554;51.546;6.776;2023-08-06T10:27:27;12.00;;;8.05;;
70183;SDS011;57554;51.546;6.776;2023-08-06T10:32:49;13.70;;;9.02;;
70183;SDS011;57554;51.546;6.776;2023-08-06T10:35:32;12.20;;;8.93;;
70183;SDS011;57554;51.546;6.776;2023-08-06T10:40:29;12.07;;;8.43;;
70183;SDS011;57554;51.546;6.776;2023-08-06T10:42:58;11.25;;;8.27;;
70183;SDS011;57554;51.546;6.776;2023-08-06T10:45:25;9.82;;;7.88;;
70183;SDS011;57554;51.546;6.776;2023-08-06T10:47:53;10.65;;;7.68;;
70183;SDS011;57554;51.546;6.776;2023-08-06T10:50:20;10.63;;;7.45;;
70183;SDS011;57554;51.546;6.776;2023-08-06T10:52:46;11.05;;;7.63;;
70183;SDS011;57554;51.546;6.776;2023-08-06T10:55:13;12.10;;;9.43;;
70183;SDS011;57554;51.546;6.776;2023-08-06T10:57:39;10.50;;;8.05;;
70183;SDS011;57554;51.546;6.776;2023-08-06T11:00:05;10.65;;;8.82;;
70183;SDS011;57554;51.546;6.776;2023-08-06T11:02:33;11.07;;;8.98;;
70183;SDS011;57554;51.546;6.776;2023-08-06T11:05:06;11.13;;;8.55;;
70183;SDS011;57554;51.546;6.776;2023-08-06T11:07:35;8.07;;;4.88;;
70183;SDS011;57554;51.546;6.776;2023-08-06T11:10:04;9.15;;;5.80;;
70183;SDS011;57554;51.546;6.776;2023-08-06T11:12:31;6.75;;;3.10;;
70183;SDS011;57554;51.546;6.776;2023-08-06T11:14:58;6.60;;;3.20;;
70183;SDS011;57554;51.546;6.776;2023-08-06T11:17:24;5.25;;;2.30;;
70183;SDS011;57554;51.546;6.776;2023-08-06T11:19:50;4.35;;;1.70;;
70183;SDS011;57554;51.546;6.776;2023-08-06T11:22:17;3.50;;;1.30;;
70183;SDS011;57554;51.546;6.776;2023-08-06T11:24:43;4.22;;;1.80;;
70183;SDS011;57554;51.546;6.776;2023-08-06T11:27:15;5.70;;;1.65;;
70183;SDS011;57554;51.546;6.776;2023-08-06T11:29:41;6.88;;;2.00;;
70183;SDS011;57554;51.546;6.776;2023-08-06T11:32:08;4.45;;;1.60;;
70183;SDS011;57554;51.546;6.776;2023-08-06T11:34:34;7.93;;;1.77;;
70183;SDS011;57554;51.546;6.776;2023-08-06T11:37:00;5.15;;;1.38;;
70183;SDS011;57554;51.546;6.776;2023-08-06T11:39:30;5.15;;;1.60;;
70183;SDS011;57554;51.546;6.776;2023-08-06T11:41:59;4.07;;;1.75;;
70183;SDS011;57554;51.546;6.776;2023-08-06T11:44:29;5.03;;;1.48;;
70183;SDS011;57554;51.546;6.776;2023-08-06T11:46:59;3.30;;;1.13;;
70183;SDS011;57554;51.546;6.776;2023-08-06T11:49:42;3.30;;;1.15;;
70183;SDS011;57554;51.546;6.776;2023-08-06T11:54:59;3.10;;;1.00;;
70183;SDS011;57554;51.546;6.776;2023-08-06T11:57:29;2.90;;;0.90;;
70183;SDS011;57554;51.546;6.776;2023-08-06T12:00:03;3.17;;;0.90;;
70183;SDS011;57554;51.546;6.776;2023-08-06T12:02:31;2.72;;;0.80;;
70183;SDS011;57554;51.546;6.776;2023-08-06T12:05:09;3.42;;;0.90;;
70183;SDS011;57554;51.546;6.776;2023-08-06T12:07:37;4.30;;;1.00;;
70183;SDS011;57554;51.546;6.776;2023-08-06T12:10:03;2.90;;;0.73;;
70183;SDS011;57554;51.546;6.776;2023-08-06T12:12:29;2.72;;;0.57;;
70183;SDS011;57554;51.546;6.776;2023-08-06T12:14:55;2.33;;;0.60;;
70183;SDS011;57554;51.546;6.776;2023-08-06T12:17:21;4.55;;;0.70;;
70183;SDS011;57554;51.546;6.776;2023-08-06T12:19:47;4.95;;;0.80;;
70183;SDS011;57554;51.546;6.776;2023-08-06T12:22:14;2.00;;;0.50;;
70183;SDS011;57554;51.546;6.776;2023-08-06T12:24:43;5.70;;;0.77;;
70183;SDS011;57554;51.546;6.776;2023-08-06T12:27:09;3.30;;;0.60;;
70183;SDS011;57554;51.546;6.776;2023-08-06T12:29:35;3.42;;;0.73;;
70183;SDS011;57554;51.546;6.776;2023-08-06T12:32:02;3.17;;;0.57;;
70183;SDS011;57554;51.546;6.776;2023-08-06T12:34:28;2.45;;;0.63;;
70183;SDS011;57554;51.546;6.776;2023-08-06T12:36:54;2.03;;;0.60;;
70183;SDS011;57554;51.546;6.776;2023-08-06T12:39:19;2.90;;;0.50;;
70183;SDS011;57554;51.546;6.776;2023-08-06T12:41:45;2.55;;;0.60;;
70183;SDS011;57554;51.546;6.776;2023-08-06T12:44:11;1.77;;;0.50;;
70183;SDS011;57554;51.546;6.776;2023-08-06T12:46:37;2.88;;;0.70;;
70183;SDS011;57554;51.546;6.776;2023-08-06T12:49:03;2.20;;;0.50;;
70183;SDS011;57554;51.546;6.776;2023-08-06T12:51:28;3.00;;;0.65;;
70183;SDS011;57554;51.546;6.776;2023-08-06T12:53:54;2.63;;;0.70;;
70183;SDS011;57554;51.546;6.776;2023-08-06T12:56:20;2.67;;;0.77;;
70183;SDS011;57554;51.546;6.776;2023-08-06T12:58:45;3.42;;;1.00;;
70183;SDS011;57554;51.546;6.776;2023-08-06T13:01:11;3.20;;;0.80;;
70183;SDS011;57554;51.546;6.776;2023-08-06T13:03:36;3.08;;;0.90;;
70183;SDS011;57554;51.546;6.776;2023-08-06T13:06:02;3.42;;;1.10;;
70183;SDS011;57554;51.546;6.776;2023-08-06T13:08:27;3.60;;;1.33;;
70183;SDS011;57554;51.546;6.776;2023-08-06T13:10:53;4.55;;;1.40;;
70183;SDS011;57554;51.546;6.776;2023-08-06T13:13:18;5.38;;;1.45;;
70183;SDS011;57554;51.546;6.776;2023-08-06T13:15:44;4.40;;;1.40;;
70183;SDS011;57554;51.546;6.776;2023-08-06T13:18:10;4.82;;;1.90;;
70183;SDS011;57554;51.546;6.776;2023-08-06T13:20:37;5.03;;;2.20;;
70183;SDS011;57554;51.546;6.776;2023-08-06T13:23:05;4.97;;;1.90;;
70183;SDS011;57554;51.546;6.776;2023-08-06T13:25:30;4.93;;;2.33;;
70183;SDS011;57554;51.546;6.776;2023-08-06T13:28:01;5.90;;;2.55;;
70183;SDS011;57554;51.546;6.776;2023-08-06T13:30:27;5.38;;;2.70;;
70183;SDS011;57554;51.546;6.776;2023-08-06T13:32:53;6.05;;;3.08;;
70183;SDS011;57554;51.546;6.776;2023-08-06T13:35:20;6.20;;;2.90;;
70183;SDS011;57554;51.546;6.776;2023-08-06T13:37:46;6.40;;;3.00;;
70183;SDS011;57554;51.546;6.776;2023-08-06T13:40:13;8.40;;;3.58;;
70183;SDS011;57554;51.546;6.776;2023-08-06T13:42:38;7.40;;;3.65;;
70183;SDS011;57554;51.546;6.776;2023-08-06T13:45:05;8.48;;;3.70;;
70183;SDS011;57554;51.546;6.776;2023-08-06T13:47:31;7.50;;;3.65;;
70183;SDS011;57554;51.546;6.776;2023-08-06T13:49:57;7.18;;;3.30;;
70183;SDS011;57554;51.546;6.776;2023-08-06T13:52:25;8.20;;;3.35;;
70183;SDS011;57554;51.546;6.776;2023-08-06T13:54:51;7.22;;;3.42;;
70183;SDS011;57554;51.546;6.776;2023-08-06T13:57:17;6.63;;;3.17;;
70183;SDS011;57554;51.546;6.776;2023-08-06T13:59:42;6.82;;;2.72;;
70183;SDS011;57554;51.546;6.776;2023-08-06T14:02:08;5.25;;;2.50;;
70183;SDS011;57554;51.546;6.776;2023-08-06T14:04:34;6.43;;;2.72;;
70183;SDS011;57554;51.546;6.776;2023-08-06T14:07:00;6.90;;;3.25;;
70183;SDS011;57554;51.546;6.776;2023-08-06T14:09:26;6.70;;;2.90;;
70183;SDS011;57554;51.546;6.776;2023-08-06T14:11:51;6.00;;;2.88;;
70183;SDS011;57554;51.546;6.776;2023-08-06T14:14:17;4.97;;;2.58;;
70183;SDS011;57554;51.546;6.776;2023-08-06T14:16:42;7.13;;;2.72;;
70183;SDS011;57554;51.546;6.776;2023-08-06T14:19:08;7.15;;;2.60;;
70183;SDS011;57554;51.546;6.776;2023-08-06T14:21:33;5.70;;;2.92;;
70183;SDS011;57554;51.546;6.776;2023-08-06T14:23:59;6.55;;;2.95;;
70183;SDS011;57554;51.546;6.776;2023-08-06T14:26:24;5.03;;;2.53;;
70183;SDS011;57554;51.546;6.776;2023-08-06T14:28:50;5.10;;;2.50;;
70183;SDS011;57554;51.546;6.776;2023-08-06T14:31:19;5.45;;;2.30;;
70183;SDS011;57554;51.546;6.776;2023-08-06T14:33:45;6.70;;;2.45;;
70183;SDS011;57554;51.546;6.776;2023-08-06T14:36:11;5.72;;;2.20;;
70183;SDS011;57554;51.546;6.776;2023-08-06T14:38:36;5.90;;;2.28;;
70183;SDS011;57554;51.546;6.776;2023-08-06T14:41:02;6.85;;;2.40;;
70183;SDS011;57554;51.546;6.776;2023-08-06T14:43:27;4.95;;;2.05;;
70183;SDS011;57554;51.546;6.776;2023-08-06T14:45:53;14.75;;;2.33;;
70183;SDS011;57554;51.546;6.776;2023-08-06T14:48:18;5.22;;;2.05;;
70183;SDS011;57554;51.546;6.776;2023-08-06T14:50:44;5.95;;;2.00;;
70183;SDS011;57554;51.546;6.776;2023-08-06T14:53:10;5.22;;;2.15;;
70183;SDS011;57554;51.546;6.776;2023-08-06T14:55:36;5.70;;;2.38;;
70183;SDS011;57554;51.546;6.776;2023-08-06T14:58:02;4.75;;;2.30;;
70183;SDS011;57554;51.546;6.776;2023-08-06T15:00:28;4.80;;;2.13;;